Time;durP1;ratioP1;P1;durP2;ratioP2;P2;SDS_P1;SDS_P2;PMS_P1;PMS_P2;Temp;Humidity;BMP_temperature;BMP_pressure;BME280_temperature;BME280_humidity;BME280_pressure;Samples;Min_cycle;Max_cycle;Signal;HPM_P1;HPM_P2
2022/09/05 00:02:08;;;;;;;5.10;2.70;;;;;;;;;;5032501;28;20521;-62
2022/09/05 00:04:39;;;;;;;4.50;2.10;;;;;;;;;;5033462;28;20446;-63
2022/09/05 00:07:11;;;;;;;4.63;2.30;;;;;;;;;;5014587;28;20918;-63
2022/09/05 00:09:53;;;;;;;3.60;2.90;;;;;;;;;;5014021;28;20929;-63
2022/09/05 00:12:23;;;;;;;5.20;3.30;;;;;;;;;;5013237;28;20509;-63
2022/09/05 00:14:55;;;;;;;4.30;3.07;;;;;;;;;;5013078;28;20490;-63
2022/09/05 00:17:28;;;;;;;3.20;2.50;;;;;;;;;;5014279;28;20477;-62
2022/09/05 00:20:00;;;;;;;3.17;2.23;;;;;;;;;;5012866;28;20929;-66
2022/09/05 00:22:34;;;;;;;5.80;3.00;;;;;;;;;;5014172;28;20438;-62
2022/09/05 00:25:08;;;;;;;3.30;2.80;;;;;;;;;;5012546;28;20451;-62
2022/09/05 00:27:40;;;;;;;4.07;3.23;;;;;;;;;;5013011;28;20434;-62
2022/09/05 00:30:10;;;;;;;5.00;2.90;;;;;;;;;;5012888;28;20446;-62
2022/09/05 00:33:00;;;;;;;6.47;3.47;;;;;;;;;;5014060;28;20431;-62
2022/09/05 00:35:35;;;;;;;3.80;3.03;;;;;;;;;;5012881;28;20831;-63
2022/09/05 00:38:11;;;;;;;4.50;2.73;;;;;;;;;;5013855;28;20442;-62
2022/09/05 00:40:40;;;;;;;5.73;2.80;;;;;;;;;;5012546;28;20447;-62
2022/09/05 00:43:12;;;;;;;3.30;2.70;;;;;;;;;;5013647;28;20876;-62
2022/09/05 00:45:43;;;;;;;4.90;2.87;;;;;;;;;;5012197;28;20525;-62
2022/09/05 00:48:16;;;;;;;7.47;2.90;;;;;;;;;;5013856;28;20463;-62
2022/09/05 00:50:48;;;;;;;3.53;2.40;;;;;;;;;;5012889;28;20453;-62
2022/09/05 00:53:18;;;;;;;3.27;2.27;;;;;;;;;;5014024;28;20841;-62
2022/09/05 00:55:53;;;;;;;3.70;2.37;;;;;;;;;;5012522;28;20528;-62
2022/09/05 00:58:42;;;;;;;3.37;2.50;;;;;;;;;;5013529;28;20457;-62
2022/09/05 01:01:23;;;;;;;3.40;2.27;;;;;;;;;;5012735;28;20463;-62
2022/09/05 01:03:59;;;;;;;2.80;2.10;;;;;;;;;;5013885;28;20450;-63
2022/09/05 01:06:30;;;;;;;4.03;1.83;;;;;;;;;;5012699;28;20438;-62
2022/09/05 01:09:21;;;;;;;2.20;1.40;;;;;;;;;;5013493;28;20443;-62
2022/09/05 01:11:51;;;;;;;4.60;2.67;;;;;;;;;;5011879;28;20522;-63
2022/09/05 01:14:26;;;;;;;4.27;3.20;;;;;;;;;;5013569;28;20541;-63
2022/09/05 01:17:05;;;;;;;4.27;3.03;;;;;;;;;;5012380;28;20824;-62
2022/09/05 01:19:39;;;;;;;9.90;2.53;;;;;;;;;;5013138;28;20763;-62
2022/09/05 01:22:18;;;;;;;4.40;2.50;;;;;;;;;;5012410;28;20534;-62
2022/09/05 01:24:54;;;;;;;7.40;2.80;;;;;;;;;;5013181;28;20438;-62
2022/09/05 01:27:47;;;;;;;8.33;2.07;;;;;;;;;;5011911;28;20446;-62
2022/09/05 01:30:15;;;;;;;3.93;2.50;;;;;;;;;;5013241;28;20442;-62
2022/09/05 01:32:47;;;;;;;11.60;3.20;;;;;;;;;;5012353;28;20533;-62
2022/09/05 01:35:37;;;;;;;2.83;2.07;;;;;;;;;;5012805;28;20984;-62
2022/09/05 01:38:07;;;;;;;5.40;2.47;;;;;;;;;;5012863;28;20434;-63
2022/09/05 01:40:37;;;;;;;4.03;2.00;;;;;;;;;;5012432;28;20489;-62
2022/09/05 01:43:18;;;;;;;3.73;2.80;;;;;;;;;;5032392;28;20560;-62
2022/09/05 01:45:47;;;;;;;3.77;2.50;;;;;;;;;;5028769;28;20443;-62
2022/09/05 01:48:22;;;;;;;4.07;2.40;;;;;;;;;;5031490;28;20552;-62
2022/09/05 01:50:55;;;;;;;3.63;2.67;;;;;;;;;;5032697;28;20511;-62
2022/09/05 01:53:39;;;;;;;5.60;2.67;;;;;;;;;;5028434;28;20595;-63
2022/09/05 01:56:25;;;;;;;3.33;2.67;;;;;;;;;;5027533;28;20833;-62
2022/09/05 01:59:03;;;;;;;4.53;2.87;;;;;;;;;;5036366;28;20437;-63
2022/09/05 02:01:36;;;;;;;3.87;2.30;;;;;;;;;;5034791;28;20441;-62
2022/09/05 02:04:20;;;;;;;3.17;2.53;;;;;;;;;;5036410;28;20450;-62
2022/09/05 02:06:53;;;;;;;5.57;2.87;;;;;;;;;;5023255;28;20996;-62
2022/09/05 02:09:31;;;;;;;4.83;3.70;;;;;;;;;;5016565;28;20492;-63
2022/09/05 02:11:59;;;;;;;3.03;2.53;;;;;;;;;;5028657;28;20448;-62
2022/09/05 02:14:31;;;;;;;5.20;2.87;;;;;;;;;;5036104;28;20496;-62
2022/09/05 02:17:09;;;;;;;4.00;2.93;;;;;;;;;;5032380;28;20449;-63
2022/09/05 02:19:46;;;;;;;5.50;2.90;;;;;;;;;;5036100;28;20429;-62
2022/09/05 02:22:18;;;;;;;3.80;3.40;;;;;;;;;;5020944;28;20446;-62
2022/09/05 02:24:46;;;;;;;6.73;2.83;;;;;;;;;;5016373;28;20766;-62
2022/09/05 02:27:24;;;;;;;5.20;3.50;;;;;;;;;;5029149;28;20434;-62
2022/09/05 02:29:58;;;;;;;3.93;3.00;;;;;;;;;;5035953;28;20776;-63
2022/09/05 02:32:27;;;;;;;4.87;3.10;;;;;;;;;;5015613;28;20496;-62
2022/09/05 02:34:58;;;;;;;5.57;3.63;;;;;;;;;;5015833;28;20572;-63
2022/09/05 02:37:29;;;;;;;4.40;3.50;;;;;;;;;;5035644;28;20437;-63
2022/09/05 02:40:01;;;;;;;6.03;3.27;;;;;;;;;;5035545;28;20445;-62
2022/09/05 02:42:32;;;;;;;3.87;2.60;;;;;;;;;;5015653;28;20525;-62
2022/09/05 02:45:06;;;;;;;4.70;2.73;;;;;;;;;;5022240;28;20441;-63
2022/09/05 02:47:38;;;;;;;3.73;2.70;;;;;;;;;;5034549;28;20493;-62
2022/09/05 02:50:21;;;;;;;3.00;2.40;;;;;;;;;;5024381;28;20547;-62
2022/09/05 02:52:49;;;;;;;2.90;2.10;;;;;;;;;;5014396;28;20438;-63
2022/09/05 02:55:21;;;;;;;3.23;2.07;;;;;;;;;;5022644;28;20481;-62
2022/09/05 02:57:52;;;;;;;4.03;2.93;;;;;;;;;;5034217;28;20446;-62
2022/09/05 03:00:22;;;;;;;16.43;3.23;;;;;;;;;;5023407;28;20886;-63
2022/09/05 03:03:01;;;;;;;3.58;2.72;;;;;;;;;;5014337;28;20525;-63
2022/09/05 03:05:31;;;;;;;7.73;2.90;;;;;;;;;;5022489;28;20194;-62
2022/09/05 03:08:25;;;;;;;4.50;3.10;;;;;;;;;;5033971;28;20533;-63
2022/09/05 03:11:12;;;;;;;5.40;3.17;;;;;;;;;;5029954;28;20468;-62
2022/09/05 03:13:57;;;;;;;4.63;2.53;;;;;;;;;;5033961;28;20457;-62
2022/09/05 03:16:57;;;;;;;3.67;2.50;;;;;;;;;;5016288;28;20567;-63
2022/09/05 03:19:50;;;;;;;3.07;2.20;;;;;;;;;;5013529;28;20796;-63
2022/09/05 03:22:36;;;;;;;4.83;3.00;;;;;;;;;;5024102;28;20438;-62
2022/09/05 03:25:14;;;;;;;4.63;2.70;;;;;;;;;;5026361;28;20442;-62
2022/09/05 03:28:02;;;;;;;3.90;2.53;;;;;;;;;;5014140;28;20492;-62
2022/09/05 03:30:38;;;;;;;4.30;2.77;;;;;;;;;;5020536;28;20513;-62
2022/09/05 03:33:23;;;;;;;3.00;2.67;;;;;;;;;;5033530;28;20448;-62
2022/09/05 03:36:15;;;;;;;4.23;3.50;;;;;;;;;;5020727;28;20540;-62
2022/09/05 03:39:01;;;;;;;5.30;3.63;;;;;;;;;;5013835;28;20430;-62
2022/09/05 03:41:37;;;;;;;6.22;3.25;;;;;;;;;;5013661;28;20442;-62
2022/09/05 03:44:22;;;;;;;4.90;3.40;;;;;;;;;;5013204;28;20192;-62
2022/09/05 03:47:02;;;;;;;4.80;2.80;;;;;;;;;;4986026;28;1171092;-63
2022/09/05 03:49:44;;;;;;;6.00;3.33;;;;;;;;;;5027808;28;20972;-63
2022/09/05 03:52:15;;;;;;;5.43;3.43;;;;;;;;;;5012892;28;20455;-62
2022/09/05 03:54:56;;;;;;;4.47;2.80;;;;;;;;;;5013411;28;20540;-63
2022/09/05 03:57:46;;;;;;;4.00;3.20;;;;;;;;;;5014595;28;20489;-62
2022/09/05 04:00:20;;;;;;;6.03;3.33;;;;;;;;;;5021506;28;20441;-62
2022/09/05 04:02:52;;;;;;;5.47;4.07;;;;;;;;;;5033904;28;20468;-62
2022/09/05 04:05:20;;;;;;;4.13;3.57;;;;;;;;;;5024395;28;20774;-63
2022/09/05 04:07:48;;;;;;;7.70;3.60;;;;;;;;;;5014527;28;20466;-62
2022/09/05 04:10:30;;;;;;;4.30;3.40;;;;;;;;;;5021574;28;20434;-62
2022/09/05 04:13:01;;;;;;;5.67;3.20;;;;;;;;;;5033765;28;20507;-62
2022/09/05 04:15:35;;;;;;;4.53;3.00;;;;;;;;;;5022128;28;20482;-65
2022/09/05 04:18:04;;;;;;;4.27;3.67;;;;;;;;;;5014130;28;20434;-64
2022/09/05 04:20:37;;;;;;;4.37;3.97;;;;;;;;;;5022907;28;20454;-65
2022/09/05 04:23:14;;;;;;;3.97;3.47;;;;;;;;;;5033788;28;20536;-65
2022/09/05 04:25:48;;;;;;;8.00;3.80;;;;;;;;;;5029402;28;20450;-66
2022/09/05 04:28:31;;;;;;;4.67;3.40;;;;;;;;;;5025377;28;20438;-65
2022/09/05 04:31:01;;;;;;;6.10;3.60;;;;;;;;;;5029173;28;20496;-65
2022/09/05 04:33:30;;;;;;;5.67;3.97;;;;;;;;;;5017609;28;20446;-65
2022/09/05 04:36:01;;;;;;;4.07;3.10;;;;;;;;;;5029324;28;20821;-65
2022/09/05 04:38:36;;;;;;;5.60;4.00;;;;;;;;;;5026503;28;20458;-65
2022/09/05 04:41:08;;;;;;;3.93;3.00;;;;;;;;;;5033886;28;20492;-65
2022/09/05 04:43:40;;;;;;;7.13;4.20;;;;;;;;;;5031399;28;20520;-65
2022/09/05 04:46:13;;;;;;;7.67;3.90;;;;;;;;;;5033699;28;20553;-64
2022/09/05 04:48:46;;;;;;;7.80;3.57;;;;;;;;;;5032817;28;20511;-64
2022/09/05 04:51:30;;;;;;;4.60;3.57;;;;;;;;;;5033246;28;20438;-65
2022/09/05 04:54:02;;;;;;;8.70;4.70;;;;;;;;;;5019057;28;20474;-65
2022/09/05 04:56:31;;;;;;;6.90;4.50;;;;;;;;;;5013304;28;20486;-64
2022/09/05 04:59:02;;;;;;;6.60;4.00;;;;;;;;;;5024239;28;20971;-63
2022/09/05 05:01:30;;;;;;;5.67;3.63;;;;;;;;;;5033566;28;20434;-62
2022/09/05 05:04:05;;;;;;;5.53;3.37;;;;;;;;;;5019659;28;20438;-64
2022/09/05 05:06:33;;;;;;;4.20;3.60;;;;;;;;;;5021188;28;20433;-62
2022/09/05 05:09:03;;;;;;;7.13;3.53;;;;;;;;;;5021543;28;20530;-62
2022/09/05 05:11:40;;;;;;;4.87;3.30;;;;;;;;;;5013532;28;20441;-62
2022/09/05 05:14:11;;;;;;;3.53;3.23;;;;;;;;;;5018972;28;20483;-64
2022/09/05 05:16:41;;;;;;;5.18;3.00;;;;;;;;;;5033219;28;20491;-64
2022/09/05 05:19:12;;;;;;;3.77;2.67;;;;;;;;;;5025794;28;20278;-64
2022/09/05 05:21:44;;;;;;;4.50;2.87;;;;;;;;;;5013469;28;20435;-62
2022/09/05 05:24:14;;;;;;;4.10;3.20;;;;;;;;;;5018937;28;20782;-62
2022/09/05 05:26:43;;;;;;;3.10;2.40;;;;;;;;;;5020813;28;20510;-62
2022/09/05 05:29:17;;;;;;;4.50;2.70;;;;;;;;;;5011589;28;20526;-62
2022/09/05 05:31:49;;;;;;;5.70;3.00;;;;;;;;;;5012804;28;20932;-62
2022/09/05 05:34:17;;;;;;;4.53;3.13;;;;;;;;;;5018373;28;20465;-62
2022/09/05 05:36:48;;;;;;;3.63;3.07;;;;;;;;;;5032935;28;20984;-62
2022/09/05 05:39:21;;;;;;;3.97;3.27;;;;;;;;;;5021936;28;20450;-62
2022/09/05 05:41:50;;;;;;;3.93;3.20;;;;;;;;;;5012943;28;20439;-63
2022/09/05 05:44:21;;;;;;;6.37;3.10;;;;;;;;;;5009502;28;20481;-63
2022/09/05 05:46:57;;;;;;;5.90;3.20;;;;;;;;;;5011357;28;20486;-62
2022/09/05 05:49:39;;;;;;;6.10;3.90;;;;;;;;;;5032420;28;20495;-63
2022/09/05 05:52:20;;;;;;;4.13;3.60;;;;;;;;;;5019256;28;20446;-62
2022/09/05 05:54:50;;;;;;;4.30;3.50;;;;;;;;;;5010412;28;20450;-62
2022/09/05 05:57:34;;;;;;;5.20;4.57;;;;;;;;;;5030766;28;20972;-62
2022/09/05 06:00:07;;;;;;;4.80;3.63;;;;;;;;;;5016454;28;20588;-62
2022/09/05 06:02:47;;;;;;;14.83;4.97;;;;;;;;;;5029695;28;20445;-63
2022/09/05 06:05:44;;;;;;;4.83;3.60;;;;;;;;;;5016198;28;20501;-63
2022/09/05 06:08:26;;;;;;;5.63;3.33;;;;;;;;;;5013003;28;20435;-63
2022/09/05 06:11:07;;;;;;;5.90;3.70;;;;;;;;;;5009677;28;20454;-62
2022/09/05 06:13:52;;;;;;;4.77;4.27;;;;;;;;;;5031075;28;20446;-66
2022/09/05 06:16:39;;;;;;;3.80;3.07;;;;;;;;;;5001738;28;20806;-63
2022/09/05 06:19:30;;;;;;;6.27;3.23;;;;;;;;;;5025406;28;20442;-62
2022/09/05 06:22:15;;;;;;;7.47;3.43;;;;;;;;;;5030598;28;20477;-62
2022/09/05 06:25:03;;;;;;;6.70;2.70;;;;;;;;;;4999546;28;20789;-64
2022/09/05 06:27:45;;;;;;;4.93;3.43;;;;;;;;;;4987651;28;20434;-62
2022/09/05 06:30:14;;;;;;;4.63;3.10;;;;;;;;;;5028409;28;20469;-63
2022/09/05 06:32:52;;;;;;;6.40;3.70;;;;;;;;;;5011145;28;20447;-63
2022/09/05 06:35:29;;;;;;;5.83;3.77;;;;;;;;;;5011781;28;20539;-63
2022/09/05 06:38:02;;;;;;;3.93;3.10;;;;;;;;;;5032200;28;20520;-63
2022/09/05 06:40:33;;;;;;;5.60;3.40;;;;;;;;;;5014780;28;20557;-63
2022/09/05 06:43:08;;;;;;;4.83;3.70;;;;;;;;;;5016974;28;20484;-62
2022/09/05 06:46:02;;;;;;;7.07;3.90;;;26.70;46.00;;;;;;5018725;28;20823;-63
2022/09/05 06:48:38;;;;;;;4.90;3.33;;;18.20;98.90;;;;;;5035453;28;20473;-63
2022/09/05 06:51:33;;;;;;;6.40;3.37;;;18.00;98.40;;;;;;5035059;28;20928;-62
2022/09/05 06:54:19;;;;;;;6.00;3.20;;;18.10;98.20;;;;;;5035218;28;20442;-62
2022/09/05 06:56:59;;;;;;;6.90;3.70;;;18.30;98.00;;;;;;5019623;28;20478;-63
2022/09/05 07:00:05;;;;;;;3.90;3.50;;;18.50;97.90;;;;;;5015475;28;20941;-63
2022/09/05 07:02:40;;;;;;;4.00;3.30;;;18.70;97.60;;;;;;5015875;28;20504;-63
2022/09/05 07:05:25;;;;;;;5.33;2.80;;;19.00;97.60;;;;;;5027491;28;20898;-63
2022/09/05 07:08:04;;;;;;;6.20;2.90;;;19.30;97.10;;;;;;5015958;28;20482;-63
2022/09/05 07:10:35;;;;;;;4.17;3.07;;;19.50;97.20;;;;;;5015108;28;20434;-63
2022/09/05 07:13:17;;;;;;;8.30;3.23;;;19.90;97.10;;;;;;5021996;28;20446;-63
2022/09/05 07:15:57;;;;;;;4.43;2.77;;;20.30;96.60;;;;;;5015422;28;20481;-63
2022/09/05 07:18:28;;;;;;;3.63;2.50;;;20.60;95.20;;;;;;5015106;28;20953;-64
2022/09/05 07:21:02;;;;;;;3.80;2.77;;;21.00;95.00;;;;;;5015672;28;20857;-63
2022/09/05 07:23:46;;;;;;;6.30;2.90;;;21.40;95.80;;;;;;5015432;28;20472;-63
2022/09/05 07:26:15;;;;;;;2.93;2.07;;;21.90;95.20;;;;;;5014991;28;20458;-63
2022/09/05 07:28:44;;;;;;;3.90;2.33;;;22.40;94.60;;;;;;5015305;28;20920;-63
2022/09/05 07:31:16;;;;;;;6.17;2.80;;;22.70;93.50;;;;;;5015366;28;20473;-62
2022/09/05 07:33:48;;;;;;;3.90;2.67;;;23.10;96.40;;;;;;5015277;28;20534;-63
2022/09/05 07:36:18;;;;;;;4.30;2.57;;;;;;;;;;5014807;28;20474;-63
2022/09/05 07:38:50;;;;;;;4.20;2.63;;;24.40;98.40;;;;;;5014955;28;20434;-63
2022/09/05 07:41:23;;;;;;;6.53;2.67;;;25.00;76.00;;;;;;5014721;28;20502;-63
2022/09/05 07:43:54;;;;;;;7.17;2.23;;;26.40;74.40;;;;;;5015285;28;20517;-64
2022/09/05 07:46:24;;;;;;;3.17;2.30;;;28.20;71.90;;;;;;5021344;28;20925;-63
2022/09/05 07:48:57;;;;;;;7.03;2.47;;;30.10;59.70;;;;;;5035410;28;20437;-64
2022/09/05 07:51:27;;;;;;;4.23;1.83;;;32.20;57.40;;;;;;5032802;28;20943;-64
2022/09/05 07:53:57;;;;;;;3.03;2.37;;;34.30;50.10;;;;;;5034451;28;20760;-64
2022/09/05 07:56:43;;;;;;;3.27;2.50;;;36.10;44.40;;;;;;5035406;28;20513;-64
2022/09/05 07:59:14;;;;;;;3.10;2.00;;;37.90;35.50;;;;;;5034845;28;20442;-64
2022/09/05 08:01:44;;;;;;;4.13;2.20;;;39.00;34.10;;;;;;5032566;28;20445;-64
2022/09/05 08:04:23;;;;;;;4.30;2.30;;;40.20;29.70;;;;;;5029265;28;20789;-64
2022/09/05 08:06:53;;;;;;;5.03;1.70;;;41.10;29.70;;;;;;5034965;28;20760;-64
2022/09/05 08:09:25;;;;;;;5.77;2.30;;;42.30;27.60;;;;;;5039717;28;20440;-64
2022/09/05 08:11:57;;;;;;;2.63;1.80;;;43.30;24.90;;;;;;5045554;28;20521;-64
2022/09/05 08:14:39;;;;;;;5.50;1.77;;;43.90;25.10;;;;;;5035640;28;20464;-65
2022/09/05 08:17:07;;;;;;;4.10;1.70;;;44.90;24.10;;;;;;5039279;28;20476;-64
2022/09/05 08:20:00;;;;;;;2.73;1.93;;;45.70;22.40;;;;;;5040103;28;20533;-64
2022/09/05 08:22:34;;;;;;;3.80;2.17;;;46.50;21.70;;;;;;5038551;28;20990;-64
2022/09/05 08:25:07;;;;;;;2.60;1.93;;;47.10;20.80;;;;;;5037874;28;20523;-64
2022/09/05 08:27:54;;;;;;;3.00;2.03;;;47.50;20.40;;;;;;5042083;28;20528;-64
2022/09/05 08:30:22;;;;;;;2.90;2.00;;;47.90;20.00;;;;;;5041423;28;20763;-65
2022/09/05 08:32:57;;;;;;;2.27;1.70;;;48.30;19.40;;;;;;5038635;28;20783;-64
2022/09/05 08:35:33;;;;;;;2.60;1.63;;;48.90;20.00;;;;;;5034509;28;20443;-66
2022/09/05 08:38:03;;;;;;;6.70;2.27;;;49.50;18.80;;;;;;5036624;28;20797;-64
2022/09/05 08:40:37;;;;;;;4.00;1.67;;;49.80;18.00;;;;;;5034897;28;20426;-64
2022/09/05 08:43:13;;;;;;;3.43;1.70;;;49.50;17.20;;;;;;5033997;28;20429;-64
2022/09/05 08:45:50;;;;;;;5.63;1.93;;;48.00;16.90;;;;;;5033758;28;20483;-64
2022/09/05 08:48:25;;;;;;;2.93;2.03;;;46.40;18.50;;;;;;5034012;28;20899;-65
2022/09/05 08:51:15;;;;;;;3.97;2.27;;;46.10;19.20;;;;;;5035976;28;20434;-65
2022/09/05 08:54:11;;;;;;;3.07;2.20;;;46.00;19.00;;;;;;5031480;28;20475;-65
2022/09/05 08:56:46;;;;;;;3.40;2.20;;;45.00;19.10;;;;;;5029470;28;20454;-64
2022/09/05 08:59:25;;;;;;;2.30;1.63;;;44.10;19.10;;;;;;5033139;28;20973;-65
2022/09/05 09:02:33;;;;;;;4.40;1.90;;;42.70;20.10;;;;;;5034648;28;20500;-64
2022/09/05 09:05:10;;;;;;;2.90;1.90;;;41.40;21.50;;;;;;5032991;28;20826;-63
2022/09/05 09:07:47;;;;;;;2.73;1.70;;;40.50;22.90;;;;;;5029534;28;20485;-64
2022/09/05 09:10:28;;;;;;;5.60;2.13;;;40.40;23.90;;;;;;5033459;28;20457;-64
2022/09/05 09:13:12;;;;;;;2.50;1.83;;;40.80;23.90;;;;;;5031721;28;20473;-64
2022/09/05 09:15:45;;;;;;;2.77;2.13;;;41.30;23.70;;;;;;5028288;28;20532;-64
2022/09/05 09:18:20;;;;;;;2.97;2.20;;;41.80;23.50;;;;;;5031628;28;20473;-64
2022/09/05 09:20:52;;;;;;;3.10;1.73;;;41.70;23.10;;;;;;5031568;28;21028;-65
2022/09/05 09:23:41;;;;;;;4.93;2.13;;;41.90;23.70;;;;;;5035076;28;20516;-64
2022/09/05 09:26:14;;;;;;;3.40;2.13;;;42.50;22.00;;;;;;5042334;28;20512;-64
2022/09/05 09:29:05;;;;;;;2.40;1.70;;;43.00;21.20;;;;;;5041543;28;20796;-64
2022/09/05 09:31:42;;;;;;;3.00;1.80;;;43.70;21.70;;;;;;5033786;28;20495;-64
2022/09/05 09:34:31;;;;;;;2.70;2.00;;;43.80;21.30;;;;;;5037296;28;20477;-64
2022/09/05 09:37:24;;;;;;;3.17;1.87;;;43.40;20.90;;;;;;5041960;28;20475;-64
2022/09/05 09:40:22;;;;;;;3.97;2.57;;;42.70;21.30;;;;;;5040100;28;20810;-64
2022/09/05 09:43:05;;;;;;;3.27;2.13;;;42.40;22.10;;;;;;5028634;28;20437;-65
2022/09/05 09:45:53;;;;;;;4.23;2.13;;;43.10;20.20;;;;;;5042908;28;21006;-64
2022/09/05 09:48:50;;;;;;;2.70;2.10;;;44.00;20.60;;;;;;5040113;28;20544;-65
2022/09/05 09:51:47;;;;;;;2.50;1.93;;;45.70;19.90;;;;;;5036982;28;20476;-65
2022/09/05 09:54:48;;;;;;;6.40;1.93;;;46.40;19.10;;;;;;5035800;28;20493;-64
2022/09/05 09:57:43;;;;;;;3.50;1.73;;;46.80;18.30;;;;;;5036164;28;22172;-64
2022/09/05 10:00:16;;;;;;;2.47;2.03;;;47.50;18.00;;;;;;5031535;28;20434;-64
2022/09/05 10:03:08;;;;;;;4.93;1.80;;;48.20;17.20;;;;;;5036648;28;20495;-65
2022/09/05 10:06:06;;;;;;;2.60;1.60;;;48.90;17.50;;;;;;5034639;28;20478;-64
2022/09/05 10:08:51;;;;;;;2.60;1.83;;;50.30;16.10;;;;;;5026345;28;20449;-65
2022/09/05 10:11:39;;;;;;;3.27;2.10;;;50.90;15.70;;;;;;5036339;28;20430;-64
2022/09/05 10:14:57;;;;;;;2.87;1.83;;;51.30;15.20;;;;;;5032508;28;20429;-64
2022/09/05 10:17:54;;;;;;;2.97;2.10;;;52.00;14.80;;;;;;5037263;28;20449;-66
2022/09/05 10:20:38;;;;;;;3.77;2.00;;;53.10;13.50;;;;;;5037201;28;20464;-65
2022/09/05 10:23:47;;;;;;;3.43;1.50;;;53.50;13.60;;;;;;5036551;28;20445;-67
2022/09/05 10:27:08;;;;;;;4.00;1.77;;;54.00;13.60;;;;;;5022035;28;20456;-65
2022/09/05 10:29:45;;;;;;;2.50;1.87;;;54.60;13.40;;;;;;5036303;28;20442;-64
2022/09/05 10:32:18;;;;;;;2.90;1.60;;;55.00;13.00;;;;;;5032901;28;20433;-64
2022/09/05 10:34:58;;;;;;;4.27;1.97;;;55.30;13.10;;;;;;5032067;28;20434;-64
2022/09/05 10:37:34;;;;;;;3.47;1.70;;;55.70;13.40;;;;;;5033025;28;20426;-64
2022/09/05 10:40:08;;;;;;;3.37;1.73;;;55.70;12.70;;;;;;5035187;28;20520;-64
2022/09/05 10:42:38;;;;;;;5.87;5.27;;;55.80;12.90;;;;;;5034946;28;21689;-64
2022/09/05 10:45:15;;;;;;;2.20;1.83;;;56.20;12.80;;;;;;5034089;28;20438;-64
2022/09/05 10:47:48;;;;;;;2.20;1.60;;;56.70;12.70;;;;;;5030248;28;21042;-65
2022/09/05 10:50:27;;;;;;;4.23;1.83;;;56.80;12.80;;;;;;5034123;28;20437;-64
2022/09/05 10:53:18;;;;;;;2.80;1.80;;;56.70;12.40;;;;;;5046124;28;20479;-64
2022/09/05 10:56:03;;;;;;;3.40;1.83;;;56.70;12.20;;;;;;5046586;28;20428;-64
2022/09/05 10:58:46;;;;;;;2.47;1.63;;;56.50;12.30;;;;;;5049927;28;20810;-64
2022/09/05 11:01:27;;;;;;;2.83;1.83;;;56.60;12.10;;;;;;5041861;28;20834;-64
2022/09/05 11:04:06;;;;;;;2.30;1.73;;;56.60;11.80;;;;;;5048011;28;20757;-64
2022/09/05 11:06:51;;;;;;;2.80;1.70;;;56.80;11.90;;;;;;5051508;28;20471;-64
2022/09/05 11:09:31;;;;;;;3.47;1.80;;;56.90;11.70;;;;;;5038665;28;20528;-64
2022/09/05 11:12:10;;;;;;;4.07;2.00;;;57.00;11.20;;;;;;5047365;28;20443;-64
2022/09/05 11:14:51;;;;;;;1.90;1.50;;;56.60;11.90;;;;;;5042488;28;20950;-64
2022/09/05 11:17:30;;;;;;;2.67;1.77;;;56.70;11.80;;;;;;5032169;28;20798;-67
2022/09/05 11:20:15;;;;;;;3.40;2.00;;;56.60;12.00;;;;;;5040738;28;20498;-64
2022/09/05 11:22:47;;;;;;;3.20;1.70;;;56.40;11.90;;;;;;5032850;28;20941;-64
2022/09/05 11:25:21;;;;;;;2.23;1.70;;;56.10;12.30;;;;;;5043312;28;21035;-64
2022/09/05 11:27:52;;;;;;;3.63;1.87;;;56.10;12.10;;;;;;5038128;28;20517;-64
2022/09/05 11:30:21;;;;;;;2.70;1.70;;;55.90;11.70;;;;;;5039555;28;20541;-64
2022/09/05 11:33:14;;;;;;;4.77;2.00;;;55.20;11.70;;;;;;5040095;28;20609;-66
2022/09/05 11:35:46;;;;;;;2.03;1.40;;;54.20;11.80;;;;;;5039884;28;20446;-64
2022/09/05 11:38:55;;;;;;;4.20;1.90;;;53.30;12.50;;;;;;5040549;28;20493;-64
2022/09/05 11:41:45;;;;;;;3.87;1.80;;;52.30;14.00;;;;;;5039359;28;20437;-65
2022/09/05 11:44:34;;;;;;;3.50;1.80;;;51.10;13.10;;;;;;5035206;28;20446;-64
2022/09/05 11:47:22;;;;;;;2.83;1.83;;;50.10;14.50;;;;;;5039965;28;20537;-63
2022/09/05 11:50:18;;;;;;;3.03;2.00;;;49.30;14.60;;;;;;5040427;28;20437;-65
2022/09/05 11:53:21;;;;;;;3.13;1.90;;;48.60;15.10;;;;;;5002553;28;20438;-63
2022/09/05 11:56:11;;;;;;;4.43;1.83;;;47.70;16.20;;;;;;5006902;28;20444;-64
2022/09/05 11:59:22;;;;;;;4.60;1.70;;;46.90;16.20;;;;;;5039536;28;20437;-63
2022/09/05 12:02:06;;;;;;;6.20;2.30;;;46.10;16.60;;;;;;5009418;28;20498;-64
2022/09/05 12:04:49;;;;;;;3.50;2.10;;;45.50;16.40;;;;;;5036623;28;20962;-64
2022/09/05 12:07:45;;;;;;;2.63;2.03;;;45.10;17.40;;;;;;5036073;28;20556;-63
2022/09/05 12:10:32;;;;;;;2.67;1.90;;;44.70;17.60;;;;;;4996412;28;20480;-63
2022/09/05 12:13:18;;;;;;;2.57;1.70;;;44.40;17.30;;;;;;5033867;28;20470;-63
2022/09/05 12:15:46;;;;;;;3.30;2.50;;;44.20;18.00;;;;;;5031912;28;20480;-63
2022/09/05 12:18:27;;;;;;;4.17;2.27;;;44.10;17.50;;;;;;5035589;28;20442;-63
2022/09/05 12:21:05;;;;;;;2.60;1.90;;;43.80;18.50;;;;;;5030508;28;20456;-64
2022/09/05 12:23:45;;;;;;;3.77;1.90;;;43.30;19.20;;;;;;5032070;28;20434;-63
2022/09/05 12:26:17;;;;;;;3.13;1.90;;;42.70;19.10;;;;;;5032569;28;20532;-63
2022/09/05 12:28:47;;;;;;;3.30;1.97;;;42.00;19.70;;;;;;5032979;28;20482;-63
2022/09/05 12:31:19;;;;;;;2.53;1.83;;;41.50;20.60;;;;;;5029228;28;20480;-63
2022/09/05 12:33:51;;;;;;;2.80;2.10;;;40.90;21.50;;;;;;5028801;28;20448;-63
2022/09/05 12:36:34;;;;;;;4.10;2.23;;;40.40;22.30;;;;;;5028653;28;20441;-63
2022/09/05 12:39:07;;;;;;;2.83;1.70;;;39.80;23.10;;;;;;5030124;28;20979;-64
2022/09/05 12:41:45;;;;;;;7.60;2.27;;;39.20;23.20;;;;;;5040732;28;20469;-63
2022/09/05 12:44:45;;;;;;;2.77;2.23;;;38.80;23.30;;;;;;5044809;28;20481;-63
2022/09/05 12:47:15;;;;;;;4.90;2.47;;;38.20;23.70;;;;;;5038050;28;21058;-64
2022/09/05 12:49:44;;;;;;;2.50;1.80;;;;;;;;;;5034689;28;20446;-65
2022/09/05 12:52:15;;;;;;;4.63;2.23;;;;;;;;;;5033553;28;21119;-63
2022/09/05 12:54:46;;;;;;;4.50;2.30;;;;;;;;;;5043241;28;21381;-63
2022/09/05 12:57:17;;;;;;;4.80;2.50;;;;;;;;;;5046729;28;20557;-63
2022/09/05 12:59:46;;;;;;;3.10;2.20;;;;;;;;;;5043316;28;20500;-64
2022/09/05 13:02:18;;;;;;;3.70;3.00;;;;;;;;;;5046230;28;20448;-63
2022/09/05 13:04:54;;;;;;;3.70;2.33;;;;;;;;;;5039412;28;20473;-64
2022/09/05 13:07:23;;;;;;;2.73;2.00;;;;;;;;;;5043224;28;20520;-63
2022/09/05 13:09:55;;;;;;;3.80;2.20;;;;;;;;;;5045752;28;20468;-63
2022/09/05 13:12:23;;;;;;;2.70;2.00;;;;;;;;;;5042942;28;20436;-63
2022/09/05 13:14:56;;;;;;;3.57;2.37;;;;;;;;;;5042239;28;20475;-64
2022/09/05 13:17:37;;;;;;;2.97;2.03;;;;;;;;;;5045377;28;20447;-63
2022/09/05 13:20:07;;;;;;;3.37;2.33;;;;;;;;;;5034841;28;20476;-63
2022/09/05 13:22:37;;;;;;;4.40;2.43;;;;;;;;;;5042599;28;20873;-63
2022/09/05 13:25:07;;;;;;;2.10;1.43;;;;;;;;;;5039726;28;20502;-64
2022/09/05 13:27:39;;;;;;;2.83;1.60;;;;;;;;;;5042276;28;20484;-63
2022/09/05 13:30:10;;;;;;;2.50;2.00;;;;;;;;;;5042238;28;20445;-63
2022/09/05 13:32:38;;;;;;;3.17;2.17;;;;;;;;;;5039372;28;20434;-63
2022/09/05 13:35:11;;;;;;;3.93;2.30;;;;;;;;;;5038817;28;20537;-63
2022/09/05 13:37:40;;;;;;;2.90;2.00;;;;;;;;;;5041781;28;20445;-63
2022/09/05 13:40:10;;;;;;;3.13;2.20;;;;;;;;;;5039207;28;20992;-63
2022/09/05 13:42:40;;;;;;;3.20;2.33;;;;;;;;;;5041255;28;20656;-63
2022/09/05 13:45:09;;;;;;;3.97;2.40;;;;;;;;;;5038706;28;20536;-65
2022/09/05 13:47:51;;;;;;;3.17;2.80;;;;;;;;;;5038369;28;20488;-63
2022/09/05 13:50:24;;;;;;;4.00;2.23;;;;;;;;;;5041131;28;20524;-63
2022/09/05 13:52:54;;;;;;;3.03;1.73;;;;;;;;;;5041878;28;20445;-64
2022/09/05 13:55:23;;;;;;;2.80;1.77;;;;;;;;;;5039510;28;20430;-63
2022/09/05 13:57:52;;;;;;;5.53;2.03;;;;;;;;;;5037131;28;20517;-64
2022/09/05 14:00:38;;;;;;;3.13;2.07;;;;;;;;;;5033241;28;20433;-64
2022/09/05 14:03:24;;;;;;;2.63;1.83;;;;;;;;;;5040889;28;20455;-63
2022/09/05 14:05:57;;;;;;;5.00;2.33;;;;;;;;;;5009812;28;20437;-63
2022/09/05 14:08:35;;;;;;;4.10;2.33;;;;;;;;;;5039425;28;20531;-63
2022/09/05 14:11:14;;;;;;;3.40;1.87;;;;;;;;;;5037121;28;20425;-63
2022/09/05 14:13:51;;;;;;;4.53;2.17;;;;;;;;;;5034999;28;20549;-64
2022/09/05 14:16:23;;;;;;;3.10;1.80;;;;;;;;;;5034390;28;20516;-63
2022/09/05 14:21:40;;;;;;;4.27;1.90;;;;;;;;;;5035597;28;20515;-66
2022/09/05 14:24:12;;;;;;;3.97;2.70;;;;;;;;;;5036230;28;21209;-63
2022/09/05 14:26:43;;;;;;;3.23;2.00;;;;;;;;;;5037213;28;20922;-63
2022/09/05 14:29:14;;;;;;;3.60;2.00;;;;;;;;;;5036139;28;20839;-63
2022/09/05 14:32:02;;;;;;;3.63;2.57;;;;;;;;;;5036339;28;20444;-63
2022/09/05 14:34:44;;;;;;;4.90;2.00;;;;;;;;;;5035656;28;20487;-63
2022/09/05 14:37:17;;;;;;;3.40;2.83;;;;;;;;;;5027202;28;20528;-63
2022/09/05 14:39:56;;;;;;;3.60;2.00;;;;;;;;;;5035595;28;20449;-62
2022/09/05 14:42:36;;;;;;;2.80;1.90;;;;;;;;;;5033063;28;20966;-63
2022/09/05 14:45:11;;;;;;;4.23;2.00;;;;;;;;;;5035363;28;20475;-63
2022/09/05 14:47:57;;;;;;;3.50;2.30;;;;;;;;;;5035126;28;20535;-63
2022/09/05 14:50:40;;;;;;;3.17;2.23;;;;;;;;;;5035502;28;20441;-63
2022/09/05 14:53:18;;;;;;;5.87;2.60;;;;;;;;;;5035245;28;20481;-64
2022/09/05 14:55:53;;;;;;;10.60;9.57;;;;;;;;;;5034427;28;20438;-62
2022/09/05 14:58:21;;;;;;;4.40;3.03;;;;;;;;;;5034530;28;20433;-63